sensor_id;sensor_type;location;lat;lon;timestamp;P1;durP1;ratioP1;P2;durP2;ratioP2
15159;SDS011;7680;48.800;9.680;2024-03-08T00:00:18;28.33;;;21.90;;
15159;SDS011;7680;48.800;9.680;2024-03-08T00:05:23;27.73;;;21.73;;
15159;SDS011;7680;48.800;9.680;2024-03-08T00:10:26;30.43;;;22.80;;
15159;SDS011;7680;48.800;9.680;2024-03-08T00:15:31;28.17;;;21.57;;
15159;SDS011;7680;48.800;9.680;2024-03-08T00:20:35;27.87;;;21.20;;
15159;SDS011;7680;48.800;9.680;2024-03-08T00:25:39;29.40;;;22.13;;
15159;SDS011;7680;48.800;9.680;2024-03-08T00:30:42;26.20;;;21.00;;
15159;SDS011;7680;48.800;9.680;2024-03-08T00:35:48;27.50;;;21.57;;
15159;SDS011;7680;48.800;9.680;2024-03-08T00:40:51;26.87;;;19.63;;
15159;SDS011;7680;48.800;9.680;2024-03-08T00:45:54;28.03;;;21.47;;
15159;SDS011;7680;48.800;9.680;2024-03-08T00:51:00;29.07;;;20.60;;
15159;SDS011;7680;48.800;9.680;2024-03-08T00:56:04;27.47;;;21.50;;
15159;SDS011;7680;48.800;9.680;2024-03-08T01:01:07;29.17;;;21.43;;
15159;SDS011;7680;48.800;9.680;2024-03-08T01:06:12;32.53;;;22.60;;
15159;SDS011;7680;48.800;9.680;2024-03-08T01:11:16;26.00;;;20.37;;
15159;SDS011;7680;48.800;9.680;2024-03-08T01:16:19;30.80;;;21.53;;
15159;SDS011;7680;48.800;9.680;2024-03-08T01:21:24;27.70;;;22.27;;
15159;SDS011;7680;48.800;9.680;2024-03-08T01:26:27;26.93;;;20.00;;
15159;SDS011;7680;48.800;9.680;2024-03-08T01:31:31;26.63;;;18.93;;
15159;SDS011;7680;48.800;9.680;2024-03-08T01:36:36;26.43;;;19.97;;
15159;SDS011;7680;48.800;9.680;2024-03-08T01:41:39;25.03;;;19.23;;
15159;SDS011;7680;48.800;9.680;2024-03-08T01:46:43;27.23;;;19.83;;
15159;SDS011;7680;48.800;9.680;2024-03-08T01:51:48;25.10;;;18.93;;
15159;SDS011;7680;48.800;9.680;2024-03-08T01:56:51;25.47;;;19.93;;
15159;SDS011;7680;48.800;9.680;2024-03-08T02:01:55;25.50;;;19.80;;
15159;SDS011;7680;48.800;9.680;2024-03-08T02:07:05;25.53;;;18.47;;
15159;SDS011;7680;48.800;9.680;2024-03-08T02:12:11;26.73;;;19.73;;
15159;SDS011;7680;48.800;9.680;2024-03-08T02:17:15;23.67;;;19.57;;
15159;SDS011;7680;48.800;9.680;2024-03-08T02:22:20;24.63;;;18.93;;
15159;SDS011;7680;48.800;9.680;2024-03-08T02:27:23;24.90;;;19.43;;
15159;SDS011;7680;48.800;9.680;2024-03-08T02:32:27;23.03;;;18.33;;
15159;SDS011;7680;48.800;9.680;2024-03-08T02:37:32;20.33;;;16.77;;
15159;SDS011;7680;48.800;9.680;2024-03-08T02:42:36;27.27;;;19.40;;
15159;SDS011;7680;48.800;9.680;2024-03-08T02:47:39;31.50;;;20.40;;
15159;SDS011;7680;48.800;9.680;2024-03-08T02:52:44;23.77;;;18.40;;
15159;SDS011;7680;48.800;9.680;2024-03-08T02:57:48;25.20;;;18.57;;
15159;SDS011;7680;48.800;9.680;2024-03-08T03:02:51;23.80;;;17.43;;
15159;SDS011;7680;48.800;9.680;2024-03-08T03:07:56;27.87;;;19.43;;
15159;SDS011;7680;48.800;9.680;2024-03-08T03:13:00;23.93;;;18.93;;
15159;SDS011;7680;48.800;9.680;2024-03-08T03:18:03;23.87;;;19.20;;
15159;SDS011;7680;48.800;9.680;2024-03-08T03:23:11;23.57;;;18.03;;
15159;SDS011;7680;48.800;9.680;2024-03-08T03:28:17;23.70;;;17.67;;
15159;SDS011;7680;48.800;9.680;2024-03-08T03:33:23;24.23;;;18.63;;
15159;SDS011;7680;48.800;9.680;2024-03-08T03:38:27;25.77;;;19.13;;
15159;SDS011;7680;48.800;9.680;2024-03-08T03:43:30;24.50;;;19.73;;
15159;SDS011;7680;48.800;9.680;2024-03-08T03:48:33;23.97;;;18.63;;
15159;SDS011;7680;48.800;9.680;2024-03-08T03:53:38;24.67;;;18.73;;
15159;SDS011;7680;48.800;9.680;2024-03-08T03:58:42;26.37;;;20.53;;
15159;SDS011;7680;48.800;9.680;2024-03-08T04:03:45;26.73;;;18.90;;
15159;SDS011;7680;48.800;9.680;2024-03-08T04:08:50;25.80;;;19.00;;
15159;SDS011;7680;48.800;9.680;2024-03-08T04:13:53;25.60;;;19.23;;
15159;SDS011;7680;48.800;9.680;2024-03-08T04:18:56;27.17;;;19.53;;
15159;SDS011;7680;48.800;9.680;2024-03-08T04:24:00;25.13;;;19.70;;
15159;SDS011;7680;48.800;9.680;2024-03-08T04:29:04;24.20;;;18.90;;
15159;SDS011;7680;48.800;9.680;2024-03-08T04:34:07;27.73;;;20.43;;
15159;SDS011;7680;48.800;9.680;2024-03-08T04:39:12;22.60;;;19.00;;
15159;SDS011;7680;48.800;9.680;2024-03-08T04:44:15;26.53;;;20.50;;
15159;SDS011;7680;48.800;9.680;2024-03-08T04:49:19;26.23;;;19.10;;
15159;SDS011;7680;48.800;9.680;2024-03-08T04:54:24;28.93;;;21.70;;
15159;SDS011;7680;48.800;9.680;2024-03-08T04:59:27;30.37;;;22.23;;
15159;SDS011;7680;48.800;9.680;2024-03-08T05:04:31;27.57;;;21.73;;
15159;SDS011;7680;48.800;9.680;2024-03-08T05:09:35;29.63;;;20.20;;
15159;SDS011;7680;48.800;9.680;2024-03-08T05:14:39;30.07;;;22.57;;
15159;SDS011;7680;48.800;9.680;2024-03-08T05:19:42;29.70;;;22.23;;
15159;SDS011;7680;48.800;9.680;2024-03-08T05:24:47;29.53;;;21.87;;
15159;SDS011;7680;48.800;9.680;2024-03-08T05:29:50;27.90;;;20.77;;
15159;SDS011;7680;48.800;9.680;2024-03-08T05:34:53;27.80;;;20.67;;
15159;SDS011;7680;48.800;9.680;2024-03-08T05:39:58;32.57;;;23.80;;
15159;SDS011;7680;48.800;9.680;2024-03-08T05:45:01;27.33;;;20.60;;
15159;SDS011;7680;48.800;9.680;2024-03-08T05:50:05;29.53;;;21.73;;
15159;SDS011;7680;48.800;9.680;2024-03-08T05:55:13;29.83;;;21.47;;
15159;SDS011;7680;48.800;9.680;2024-03-08T06:00:16;29.23;;;22.10;;
15159;SDS011;7680;48.800;9.680;2024-03-08T06:05:20;32.57;;;23.73;;
15159;SDS011;7680;48.800;9.680;2024-03-08T06:10:28;31.03;;;22.40;;
15159;SDS011;7680;48.800;9.680;2024-03-08T06:15:31;34.77;;;24.47;;
15159;SDS011;7680;48.800;9.680;2024-03-08T06:20:36;27.37;;;20.23;;
15159;SDS011;7680;48.800;9.680;2024-03-08T06:25:40;32.07;;;23.00;;
15159;SDS011;7680;48.800;9.680;2024-03-08T06:30:43;33.60;;;23.77;;
15159;SDS011;7680;48.800;9.680;2024-03-08T06:35:47;32.40;;;24.00;;
15159;SDS011;7680;48.800;9.680;2024-03-08T06:40:51;38.07;;;25.13;;
15159;SDS011;7680;48.800;9.680;2024-03-08T06:45:56;41.53;;;25.20;;
15159;SDS011;7680;48.800;9.680;2024-03-08T06:50:59;37.87;;;23.93;;
15159;SDS011;7680;48.800;9.680;2024-03-08T06:56:04;32.17;;;22.70;;
15159;SDS011;7680;48.800;9.680;2024-03-08T07:01:08;34.13;;;24.73;;
15159;SDS011;7680;48.800;9.680;2024-03-08T07:06:16;34.37;;;23.37;;
15159;SDS011;7680;48.800;9.680;2024-03-08T07:11:21;34.50;;;25.33;;
15159;SDS011;7680;48.800;9.680;2024-03-08T07:16:25;34.40;;;23.87;;
15159;SDS011;7680;48.800;9.680;2024-03-08T07:21:28;30.27;;;22.87;;
15159;SDS011;7680;48.800;9.680;2024-03-08T07:26:32;29.03;;;23.20;;
15159;SDS011;7680;48.800;9.680;2024-03-08T07:31:36;28.00;;;21.80;;
15159;SDS011;7680;48.800;9.680;2024-03-08T07:36:51;29.73;;;21.77;;
15159;SDS011;7680;48.800;9.680;2024-03-08T07:41:56;31.67;;;22.70;;
15159;SDS011;7680;48.800;9.680;2024-03-08T07:46:59;28.57;;;21.37;;
15159;SDS011;7680;48.800;9.680;2024-03-08T07:52:02;28.53;;;21.80;;
15159;SDS011;7680;48.800;9.680;2024-03-08T07:57:10;28.70;;;21.90;;
15159;SDS011;7680;48.800;9.680;2024-03-08T08:02:13;30.00;;;22.40;;
15159;SDS011;7680;48.800;9.680;2024-03-08T08:07:16;26.80;;;21.60;;
15159;SDS011;7680;48.800;9.680;2024-03-08T08:12:21;27.90;;;21.50;;
15159;SDS011;7680;48.800;9.680;2024-03-08T08:17:24;26.50;;;19.90;;
15159;SDS011;7680;48.800;9.680;2024-03-08T08:22:27;25.37;;;19.77;;
15159;SDS011;7680;48.800;9.680;2024-03-08T08:27:32;28.87;;;22.60;;
15159;SDS011;7680;48.800;9.680;2024-03-08T08:32:35;27.50;;;20.93;;
15159;SDS011;7680;48.800;9.680;2024-03-08T08:37:38;27.40;;;21.60;;
15159;SDS011;7680;48.800;9.680;2024-03-08T08:42:44;26.80;;;21.20;;
15159;SDS011;7680;48.800;9.680;2024-03-08T08:47:50;29.63;;;21.93;;
15159;SDS011;7680;48.800;9.680;2024-03-08T08:52:54;27.93;;;21.70;;
15159;SDS011;7680;48.800;9.680;2024-03-08T08:57:59;26.93;;;20.97;;
15159;SDS011;7680;48.800;9.680;2024-03-08T09:03:02;29.93;;;22.53;;
15159;SDS011;7680;48.800;9.680;2024-03-08T09:08:08;27.47;;;20.27;;
15159;SDS011;7680;48.800;9.680;2024-03-08T09:13:13;30.87;;;21.40;;
15159;SDS011;7680;48.800;9.680;2024-03-08T09:18:31;30.77;;;21.47;;
15159;SDS011;7680;48.800;9.680;2024-03-08T09:23:34;28.43;;;21.00;;
15159;SDS011;7680;48.800;9.680;2024-03-08T09:28:39;29.33;;;20.83;;
15159;SDS011;7680;48.800;9.680;2024-03-08T09:33:42;28.57;;;21.77;;
15159;SDS011;7680;48.800;9.680;2024-03-08T09:38:46;28.97;;;22.10;;
15159;SDS011;7680;48.800;9.680;2024-03-08T09:43:52;28.00;;;20.17;;
15159;SDS011;7680;48.800;9.680;2024-03-08T09:48:57;28.07;;;19.83;;
15159;SDS011;7680;48.800;9.680;2024-03-08T09:54:02;29.27;;;21.80;;
15159;SDS011;7680;48.800;9.680;2024-03-08T09:59:18;28.80;;;21.47;;
15159;SDS011;7680;48.800;9.680;2024-03-08T10:04:44;25.90;;;20.00;;
15159;SDS011;7680;48.800;9.680;2024-03-08T10:09:51;29.17;;;21.53;;
15159;SDS011;7680;48.800;9.680;2024-03-08T10:14:57;29.43;;;20.73;;
15159;SDS011;7680;48.800;9.680;2024-03-08T10:20:01;28.53;;;21.30;;
15159;SDS011;7680;48.800;9.680;2024-03-08T10:25:16;27.97;;;20.47;;
15159;SDS011;7680;48.800;9.680;2024-03-08T10:30:21;28.03;;;20.23;;
15159;SDS011;7680;48.800;9.680;2024-03-08T10:35:24;28.47;;;19.90;;
15159;SDS011;7680;48.800;9.680;2024-03-08T10:40:28;26.97;;;20.03;;
15159;SDS011;7680;48.800;9.680;2024-03-08T10:45:35;27.40;;;19.87;;
15159;SDS011;7680;48.800;9.680;2024-03-08T10:50:43;29.17;;;21.90;;
15159;SDS011;7680;48.800;9.680;2024-03-08T10:55:48;28.20;;;20.27;;
15159;SDS011;7680;48.800;9.680;2024-03-08T11:00:56;28.93;;;20.53;;
15159;SDS011;7680;48.800;9.680;2024-03-08T11:06:00;25.77;;;19.90;;
15159;SDS011;7680;48.800;9.680;2024-03-08T11:11:04;25.17;;;20.23;;
15159;SDS011;7680;48.800;9.680;2024-03-08T11:16:09;30.77;;;22.00;;
15159;SDS011;7680;48.800;9.680;2024-03-08T11:21:12;26.27;;;19.40;;
15159;SDS011;7680;48.800;9.680;2024-03-08T11:26:17;26.57;;;20.03;;
15159;SDS011;7680;48.800;9.680;2024-03-08T11:31:26;27.93;;;20.10;;
15159;SDS011;7680;48.800;9.680;2024-03-08T11:36:30;26.43;;;20.40;;
15159;SDS011;7680;48.800;9.680;2024-03-08T11:41:38;25.23;;;19.43;;
15159;SDS011;7680;48.800;9.680;2024-03-08T11:46:44;25.73;;;19.37;;
15159;SDS011;7680;48.800;9.680;2024-03-08T11:51:51;27.40;;;21.43;;
15159;SDS011;7680;48.800;9.680;2024-03-08T11:56:55;25.60;;;18.47;;
15159;SDS011;7680;48.800;9.680;2024-03-08T12:02:03;25.37;;;19.27;;
15159;SDS011;7680;48.800;9.680;2024-03-08T12:07:09;24.73;;;18.63;;
15159;SDS011;7680;48.800;9.680;2024-03-08T12:12:15;27.30;;;19.43;;
15159;SDS011;7680;48.800;9.680;2024-03-08T12:17:20;25.23;;;19.02;;
15159;SDS011;7680;48.800;9.680;2024-03-08T12:22:25;23.08;;;17.92;;
15159;SDS011;7680;48.800;9.680;2024-03-08T12:27:29;23.43;;;18.57;;
15159;SDS011;7680;48.800;9.680;2024-03-08T12:32:34;25.70;;;19.07;;
15159;SDS011;7680;48.800;9.680;2024-03-08T12:37:37;24.63;;;18.77;;
15159;SDS011;7680;48.800;9.680;2024-03-08T12:42:41;24.03;;;19.83;;
15159;SDS011;7680;48.800;9.680;2024-03-08T12:47:45;24.10;;;18.33;;
15159;SDS011;7680;48.800;9.680;2024-03-08T12:52:51;22.88;;;18.38;;
15159;SDS011;7680;48.800;9.680;2024-03-08T12:57:54;22.75;;;18.63;;
15159;SDS011;7680;48.800;9.680;2024-03-08T13:02:59;23.45;;;18.20;;
15159;SDS011;7680;48.800;9.680;2024-03-08T13:08:02;24.80;;;18.40;;
15159;SDS011;7680;48.800;9.680;2024-03-08T13:13:06;24.88;;;19.30;;
15159;SDS011;7680;48.800;9.680;2024-03-08T13:18:12;22.42;;;18.17;;
15159;SDS011;7680;48.800;9.680;2024-03-08T13:23:17;24.02;;;18.27;;
15159;SDS011;7680;48.800;9.680;2024-03-08T13:28:20;23.85;;;19.10;;
15159;SDS011;7680;48.800;9.680;2024-03-08T13:33:30;23.90;;;18.60;;
15159;SDS011;7680;48.800;9.680;2024-03-08T13:38:36;22.23;;;18.08;;
15159;SDS011;7680;48.800;9.680;2024-03-08T13:43:40;24.02;;;19.58;;
15159;SDS011;7680;48.800;9.680;2024-03-08T13:48:45;22.20;;;17.88;;
15159;SDS011;7680;48.800;9.680;2024-03-08T13:53:49;21.10;;;18.08;;
15159;SDS011;7680;48.800;9.680;2024-03-08T13:58:52;21.52;;;17.30;;
15159;SDS011;7680;48.800;9.680;2024-03-08T14:03:59;20.40;;;17.45;;
15159;SDS011;7680;48.800;9.680;2024-03-08T14:09:02;18.40;;;15.95;;
15159;SDS011;7680;48.800;9.680;2024-03-08T14:14:05;19.55;;;17.17;;
15159;SDS011;7680;48.800;9.680;2024-03-08T14:19:11;19.88;;;16.17;;
15159;SDS011;7680;48.800;9.680;2024-03-08T14:24:16;21.95;;;17.60;;
15159;SDS011;7680;48.800;9.680;2024-03-08T14:29:20;21.27;;;16.35;;
15159;SDS011;7680;48.800;9.680;2024-03-08T14:34:24;19.38;;;16.15;;
15159;SDS011;7680;48.800;9.680;2024-03-08T14:39:28;20.30;;;16.25;;
15159;SDS011;7680;48.800;9.680;2024-03-08T14:44:32;20.38;;;16.85;;
15159;SDS011;7680;48.800;9.680;2024-03-08T14:49:36;18.88;;;15.82;;
15159;SDS011;7680;48.800;9.680;2024-03-08T14:54:39;17.67;;;14.80;;
15159;SDS011;7680;48.800;9.680;2024-03-08T14:59:42;18.48;;;15.30;;
15159;SDS011;7680;48.800;9.680;2024-03-08T15:04:47;17.20;;;15.23;;
15159;SDS011;7680;48.800;9.680;2024-03-08T15:09:59;19.05;;;15.45;;
15159;SDS011;7680;48.800;9.680;2024-03-08T15:15:03;17.55;;;14.90;;
15159;SDS011;7680;48.800;9.680;2024-03-08T15:20:10;17.27;;;14.73;;
15159;SDS011;7680;48.800;9.680;2024-03-08T15:25:17;15.60;;;13.75;;
15159;SDS011;7680;48.800;9.680;2024-03-08T15:30:22;18.40;;;15.15;;
15159;SDS011;7680;48.800;9.680;2024-03-08T15:35:29;15.48;;;13.55;;
15159;SDS011;7680;48.800;9.680;2024-03-08T15:40:33;17.00;;;14.05;;
15159;SDS011;7680;48.800;9.680;2024-03-08T15:45:37;15.60;;;12.85;;
15159;SDS011;7680;48.800;9.680;2024-03-08T15:50:41;16.33;;;13.75;;
15159;SDS011;7680;48.800;9.680;2024-03-08T15:55:44;14.77;;;13.18;;
15159;SDS011;7680;48.800;9.680;2024-03-08T16:00:48;14.75;;;12.52;;
15159;SDS011;7680;48.800;9.680;2024-03-08T16:05:55;14.50;;;11.90;;
15159;SDS011;7680;48.800;9.680;2024-03-08T16:10:59;13.27;;;11.55;;
15159;SDS011;7680;48.800;9.680;2024-03-08T16:16:07;14.57;;;10.98;;
15159;SDS011;7680;48.800;9.680;2024-03-08T16:21:12;14.38;;;11.02;;
15159;SDS011;7680;48.800;9.680;2024-03-08T16:26:15;14.07;;;12.20;;
15159;SDS011;7680;48.800;9.680;2024-03-08T16:31:19;13.27;;;11.07;;
15159;SDS011;7680;48.800;9.680;2024-03-08T16:36:23;13.20;;;11.68;;
15159;SDS011;7680;48.800;9.680;2024-03-08T16:41:28;14.90;;;12.23;;
15159;SDS011;7680;48.800;9.680;2024-03-08T16:46:31;15.65;;;12.63;;
15159;SDS011;7680;48.800;9.680;2024-03-08T16:51:39;13.73;;;12.20;;
15159;SDS011;7680;48.800;9.680;2024-03-08T16:56:42;16.50;;;13.90;;
15159;SDS011;7680;48.800;9.680;2024-03-08T17:01:46;15.60;;;12.98;;
15159;SDS011;7680;48.800;9.680;2024-03-08T17:06:51;17.85;;;14.38;;
15159;SDS011;7680;48.800;9.680;2024-03-08T17:11:54;14.00;;;12.27;;
15159;SDS011;7680;48.800;9.680;2024-03-08T17:16:58;13.50;;;12.05;;
15159;SDS011;7680;48.800;9.680;2024-03-08T17:22:03;15.43;;;13.85;;
15159;SDS011;7680;48.800;9.680;2024-03-08T17:27:08;15.82;;;13.95;;
15159;SDS011;7680;48.800;9.680;2024-03-08T17:32:11;17.02;;;14.38;;
15159;SDS011;7680;48.800;9.680;2024-03-08T17:37:17;15.05;;;13.50;;
15159;SDS011;7680;48.800;9.680;2024-03-08T17:42:20;15.60;;;13.55;;
15159;SDS011;7680;48.800;9.680;2024-03-08T17:47:26;16.60;;;13.13;;
15159;SDS011;7680;48.800;9.680;2024-03-08T17:52:31;16.50;;;12.90;;
15159;SDS011;7680;48.800;9.680;2024-03-08T17:57:34;14.82;;;12.73;;
15159;SDS011;7680;48.800;9.680;2024-03-08T18:02:41;14.70;;;12.60;;
15159;SDS011;7680;48.800;9.680;2024-03-08T18:07:45;15.67;;;12.93;;
15159;SDS011;7680;48.800;9.680;2024-03-08T18:12:49;13.98;;;12.48;;
15159;SDS011;7680;48.800;9.680;2024-03-08T18:17:55;14.80;;;12.80;;
15159;SDS011;7680;48.800;9.680;2024-03-08T18:23:01;13.57;;;12.27;;
15159;SDS011;7680;48.800;9.680;2024-03-08T18:28:06;14.50;;;12.90;;
15159;SDS011;7680;48.800;9.680;2024-03-08T18:33:11;12.73;;;11.43;;
15159;SDS011;7680;48.800;9.680;2024-03-08T18:38:17;13.13;;;11.73;;
15159;SDS011;7680;48.800;9.680;2024-03-08T18:43:24;12.07;;;10.87;;
15159;SDS011;7680;48.800;9.680;2024-03-08T18:48:29;11.70;;;10.47;;
15159;SDS011;7680;48.800;9.680;2024-03-08T18:53:33;14.27;;;11.63;;
15159;SDS011;7680;48.800;9.680;2024-03-08T18:58:42;12.23;;;10.87;;
15159;SDS011;7680;48.800;9.680;2024-03-08T19:03:47;12.37;;;10.87;;
15159;SDS011;7680;48.800;9.680;2024-03-08T19:08:53;11.50;;;10.40;;
15159;SDS011;7680;48.800;9.680;2024-03-08T19:13:56;11.33;;;10.13;;
15159;SDS011;7680;48.800;9.680;2024-03-08T19:19:00;13.53;;;11.03;;
15159;SDS011;7680;48.800;9.680;2024-03-08T19:24:06;11.53;;;10.43;;
15159;SDS011;7680;48.800;9.680;2024-03-08T19:29:10;12.03;;;10.70;;
15159;SDS011;7680;48.800;9.680;2024-03-08T19:34:15;12.57;;;10.90;;
15159;SDS011;7680;48.800;9.680;2024-03-08T19:39:21;12.50;;;11.17;;
15159;SDS011;7680;48.800;9.680;2024-03-08T19:44:26;12.93;;;11.43;;
15159;SDS011;7680;48.800;9.680;2024-03-08T19:49:29;12.93;;;11.63;;
15159;SDS011;7680;48.800;9.680;2024-03-08T19:54:35;14.43;;;12.30;;
15159;SDS011;7680;48.800;9.680;2024-03-08T19:59:39;14.83;;;12.33;;
15159;SDS011;7680;48.800;9.680;2024-03-08T20:04:46;12.60;;;11.03;;
15159;SDS011;7680;48.800;9.680;2024-03-08T20:09:50;14.90;;;12.50;;
15159;SDS011;7680;48.800;9.680;2024-03-08T20:14:54;13.83;;;11.23;;
15159;SDS011;7680;48.800;9.680;2024-03-08T20:19:57;14.67;;;13.03;;
15159;SDS011;7680;48.800;9.680;2024-03-08T20:25:03;15.77;;;13.57;;
15159;SDS011;7680;48.800;9.680;2024-03-08T20:30:08;16.03;;;14.33;;
15159;SDS011;7680;48.800;9.680;2024-03-08T20:35:13;20.33;;;17.30;;
15159;SDS011;7680;48.800;9.680;2024-03-08T20:40:18;18.83;;;16.07;;
15159;SDS011;7680;48.800;9.680;2024-03-08T20:45:26;14.80;;;13.20;;
15159;SDS011;7680;48.800;9.680;2024-03-08T20:50:29;15.63;;;14.03;;
15159;SDS011;7680;48.800;9.680;2024-03-08T20:55:34;17.03;;;15.23;;
15159;SDS011;7680;48.800;9.680;2024-03-08T21:00:39;15.27;;;13.70;;
15159;SDS011;7680;48.800;9.680;2024-03-08T21:05:49;14.70;;;12.67;;
15159;SDS011;7680;48.800;9.680;2024-03-08T21:10:56;12.83;;;11.40;;
15159;SDS011;7680;48.800;9.680;2024-03-08T21:16:00;13.57;;;11.63;;
15159;SDS011;7680;48.800;9.680;2024-03-08T21:21:07;14.70;;;11.57;;
15159;SDS011;7680;48.800;9.680;2024-03-08T21:26:11;14.43;;;12.23;;
15159;SDS011;7680;48.800;9.680;2024-03-08T21:31:16;14.67;;;12.00;;
15159;SDS011;7680;48.800;9.680;2024-03-08T21:36:21;12.97;;;11.40;;
15159;SDS011;7680;48.800;9.680;2024-03-08T21:41:26;13.20;;;11.70;;
15159;SDS011;7680;48.800;9.680;2024-03-08T21:46:29;17.20;;;13.80;;
15159;SDS011;7680;48.800;9.680;2024-03-08T21:51:32;16.70;;;12.87;;
15159;SDS011;7680;48.800;9.680;2024-03-08T21:56:38;15.90;;;11.77;;
15159;SDS011;7680;48.800;9.680;2024-03-08T22:01:41;15.20;;;12.03;;
15159;SDS011;7680;48.800;9.680;2024-03-08T22:06:46;14.40;;;12.17;;
15159;SDS011;7680;48.800;9.680;2024-03-08T22:11:52;14.60;;;11.97;;
15159;SDS011;7680;48.800;9.680;2024-03-08T22:16:55;15.70;;;14.10;;
15159;SDS011;7680;48.800;9.680;2024-03-08T22:21:59;16.47;;;14.67;;
15159;SDS011;7680;48.800;9.680;2024-03-08T22:27:04;15.63;;;13.50;;
15159;SDS011;7680;48.800;9.680;2024-03-08T22:32:07;14.80;;;13.23;;
15159;SDS011;7680;48.800;9.680;2024-03-08T22:37:12;21.63;;;16.10;;
15159;SDS011;7680;48.800;9.680;2024-03-08T22:42:17;27.93;;;18.63;;
15159;SDS011;7680;48.800;9.680;2024-03-08T22:47:20;20.90;;;15.70;;
15159;SDS011;7680;48.800;9.680;2024-03-08T22:52:23;18.73;;;14.97;;
15159;SDS011;7680;48.800;9.680;2024-03-08T22:57:29;18.63;;;14.33;;
15159;SDS011;7680;48.800;9.680;2024-03-08T23:02:32;16.83;;;13.50;;
15159;SDS011;7680;48.800;9.680;2024-03-08T23:07:36;15.20;;;12.80;;
15159;SDS011;7680;48.800;9.680;2024-03-08T23:12:42;12.93;;;11.10;;
15159;SDS011;7680;48.800;9.680;2024-03-08T23:17:46;12.77;;;11.33;;
15159;SDS011;7680;48.800;9.680;2024-03-08T23:22:51;14.07;;;11.93;;
15159;SDS011;7680;48.800;9.680;2024-03-08T23:27:56;14.77;;;13.13;;
15159;SDS011;7680;48.800;9.680;2024-03-08T23:33:01;15.17;;;12.53;;
15159;SDS011;7680;48.800;9.680;2024-03-08T23:38:05;15.53;;;12.87;;
15159;SDS011;7680;48.800;9.680;2024-03-08T23:43:11;13.23;;;11.37;;
15159;SDS011;7680;48.800;9.680;2024-03-08T23:48:14;12.40;;;11.10;;
15159;SDS011;7680;48.800;9.680;2024-03-08T23:53:18;12.67;;;11.33;;
15159;SDS011;7680;48.800;9.680;2024-03-08T23:58:22;13.70;;;11.57;;
